KCOU/COU METAR and TAF weather

Enter ICAO airport designator
Station Type Date Time Source
KCOU METAR 2021/05/14 07:54 UTC NOAA

KCOU 140754Z AUTO 12006KT 10SM CLR 09/02 A3031 RMK AO2 SLP261 T00940017


Station Type Date Time Source
KCOU Decoded METAR 2021/05/14 07:54 UTC NOAA

COLUMBIA REGIONAL AIRPORT, MO, United States (KCOU) 38-49N 092-13W 271M
May 14, 2021 - 03:54 AM EDT / 2021.05.14 0754 UTC
Wind: from the ESE (120 degrees) at 7 MPH (6 KT):0
Visibility: 10 mile(s):0
Sky conditions: clear
Temperature: 48.9 F (9.4 C)
Dew Point: 35.1 F (1.7 C)
Relative Humidity: 58%
Pressure (altimeter): 30.31 in. Hg (1026 hPa)
ob: KCOU 140754Z AUTO 12006KT 10SM CLR 09/02 A3031 RMK AO2 SLP261 T00940017
cycle: 8

Station Type Date Time Source
KCOU TAF 2021/05/14 06:48 UTC NOAA

TAF KCOU 140545Z 1406/1506 12006KT P6SM FEW250
FM141600 17010KT P6SM BKN120

Example: see airport list